sensor_id;sensor_type;location;lat;lon;timestamp;pressure;altitude;pressure_sealevel;temperature;humidity
65800;BME280;52544;48.116;11.660;2022-11-20T00:02:19;95064.91;;;5.24;100.00
65800;BME280;52544;48.116;11.660;2022-11-20T00:04:45;95068.47;;;5.23;100.00
65800;BME280;52544;48.116;11.660;2022-11-20T00:07:10;95068.56;;;5.21;100.00
65800;BME280;52544;48.116;11.660;2022-11-20T00:09:36;95078.72;;;5.26;100.00
65800;BME280;52544;48.116;11.660;2022-11-20T00:12:01;95072.66;;;5.25;100.00
65800;BME280;52544;48.116;11.660;2022-11-20T00:14:27;95064.06;;;5.23;100.00
65800;BME280;52544;48.116;11.660;2022-11-20T00:16:52;95070.63;;;5.29;100.00
65800;BME280;52544;48.116;11.660;2022-11-20T00:19:18;95078.38;;;5.31;100.00
65800;BME280;52544;48.116;11.660;2022-11-20T00:21:43;95077.22;;;5.35;100.00
65800;BME280;52544;48.116;11.660;2022-11-20T00:24:09;95081.97;;;5.30;100.00
65800;BME280;52544;48.116;11.660;2022-11-20T00:26:36;95076.94;;;5.26;100.00
65800;BME280;52544;48.116;11.660;2022-11-20T00:29:02;95084.59;;;5.30;100.00
65800;BME280;52544;48.116;11.660;2022-11-20T00:31:28;95081.41;;;5.37;100.00
65800;BME280;52544;48.116;11.660;2022-11-20T00:33:54;95079.63;;;5.38;100.00
65800;BME280;52544;48.116;11.660;2022-11-20T00:36:22;95085.34;;;5.32;100.00
65800;BME280;52544;48.116;11.660;2022-11-20T00:38:55;95081.28;;;5.39;100.00
65800;BME280;52544;48.116;11.660;2022-11-20T00:41:21;95087.56;;;5.49;100.00
65800;BME280;52544;48.116;11.660;2022-11-20T00:43:46;95089.44;;;5.47;100.00
65800;BME280;52544;48.116;11.660;2022-11-20T00:46:17;95092.41;;;5.42;100.00
65800;BME280;52544;48.116;11.660;2022-11-20T00:48:43;95102.06;;;5.42;100.00
65800;BME280;52544;48.116;11.660;2022-11-20T00:51:11;95088.47;;;5.37;100.00
65800;BME280;52544;48.116;11.660;2022-11-20T00:53:37;95093.28;;;5.30;100.00
65800;BME280;52544;48.116;11.660;2022-11-20T00:56:04;95097.22;;;5.24;100.00
65800;BME280;52544;48.116;11.660;2022-11-20T00:58:32;95096.25;;;5.25;100.00
65800;BME280;52544;48.116;11.660;2022-11-20T01:01:03;95091.47;;;5.19;100.00
65800;BME280;52544;48.116;11.660;2022-11-20T01:03:37;95100.50;;;5.15;100.00
65800;BME280;52544;48.116;11.660;2022-11-20T01:06:46;95100.66;;;5.25;100.00
65800;BME280;52544;48.116;11.660;2022-11-20T01:08:55;95105.25;;;5.34;100.00
65800;BME280;52544;48.116;11.660;2022-11-20T01:11:27;95105.50;;;5.31;100.00
65800;BME280;52544;48.116;11.660;2022-11-20T01:13:54;95103.16;;;5.26;100.00
65800;BME280;52544;48.116;11.660;2022-11-20T01:16:26;95114.53;;;5.27;100.00
65800;BME280;52544;48.116;11.660;2022-11-20T01:18:53;95107.38;;;5.29;100.00
65800;BME280;52544;48.116;11.660;2022-11-20T01:21:45;95110.94;;;5.28;100.00
65800;BME280;52544;48.116;11.660;2022-11-20T01:24:14;95111.72;;;5.41;100.00
65800;BME280;52544;48.116;11.660;2022-11-20T01:26:41;95112.19;;;5.35;100.00
65800;BME280;52544;48.116;11.660;2022-11-20T01:29:14;95116.56;;;5.35;100.00
65800;BME280;52544;48.116;11.660;2022-11-20T01:31:40;95111.56;;;5.32;100.00
65800;BME280;52544;48.116;11.660;2022-11-20T01:34:09;95119.94;;;5.37;100.00
65800;BME280;52544;48.116;11.660;2022-11-20T01:36:36;95115.53;;;5.37;100.00
65800;BME280;52544;48.116;11.660;2022-11-20T01:39:05;95110.91;;;5.41;100.00
65800;BME280;52544;48.116;11.660;2022-11-20T01:41:32;95114.47;;;5.40;100.00
65800;BME280;52544;48.116;11.660;2022-11-20T01:44:21;95115.66;;;5.36;100.00
65800;BME280;52544;48.116;11.660;2022-11-20T01:46:57;95115.66;;;5.36;100.00
65800;BME280;52544;48.116;11.660;2022-11-20T01:49:33;95118.50;;;5.33;100.00
65800;BME280;52544;48.116;11.660;2022-11-20T01:52:03;95114.69;;;5.37;100.00
65800;BME280;52544;48.116;11.660;2022-11-20T01:54:35;95118.78;;;5.41;100.00
65800;BME280;52544;48.116;11.660;2022-11-20T01:57:01;95106.94;;;5.35;100.00
65800;BME280;52544;48.116;11.660;2022-11-20T01:59:29;95121.00;;;5.34;100.00
65800;BME280;52544;48.116;11.660;2022-11-20T02:01:55;95112.16;;;5.48;100.00
65800;BME280;52544;48.116;11.660;2022-11-20T02:04:20;95119.41;;;5.44;100.00
65800;BME280;52544;48.116;11.660;2022-11-20T02:06:50;95110.41;;;5.36;100.00
65800;BME280;52544;48.116;11.660;2022-11-20T02:09:17;95111.56;;;5.32;100.00
65800;BME280;52544;48.116;11.660;2022-11-20T02:11:42;95116.56;;;5.35;100.00
65800;BME280;52544;48.116;11.660;2022-11-20T02:14:08;95118.06;;;5.26;100.00
65800;BME280;52544;48.116;11.660;2022-11-20T02:16:37;95110.75;;;5.31;100.00
65800;BME280;52544;48.116;11.660;2022-11-20T02:19:09;95116.06;;;5.30;100.00
65800;BME280;52544;48.116;11.660;2022-11-20T02:21:43;95113.44;;;5.30;100.00
65800;BME280;52544;48.116;11.660;2022-11-20T02:24:15;95109.88;;;5.31;100.00
65800;BME280;52544;48.116;11.660;2022-11-20T02:26:51;95119.09;;;5.36;100.00
65800;BME280;52544;48.116;11.660;2022-11-20T02:32:06;95121.81;;;5.35;100.00
65800;BME280;52544;48.116;11.660;2022-11-20T02:34:32;95122.78;;;5.34;100.00
65800;BME280;52544;48.116;11.660;2022-11-20T02:36:58;95120.16;;;5.34;100.00
65800;BME280;52544;48.116;11.660;2022-11-20T02:39:26;95123.53;;;5.36;100.00
65800;BME280;52544;48.116;11.660;2022-11-20T02:41:53;95125.34;;;5.46;100.00
65800;BME280;52544;48.116;11.660;2022-11-20T02:44:20;95122.69;;;5.35;100.00
65800;BME280;52544;48.116;11.660;2022-11-20T02:46:45;95121.31;;;5.30;100.00
65800;BME280;52544;48.116;11.660;2022-11-20T02:49:11;95118.50;;;5.33;100.00
65800;BME280;52544;48.116;11.660;2022-11-20T02:51:37;95114.25;;;5.43;100.00
65800;BME280;52544;48.116;11.660;2022-11-20T02:54:02;95122.78;;;5.34;100.00
65800;BME280;52544;48.116;11.660;2022-11-20T02:56:28;95117.44;;;5.35;100.00
65800;BME280;52544;48.116;11.660;2022-11-20T02:58:53;95121.81;;;5.35;100.00
65800;BME280;52544;48.116;11.660;2022-11-20T03:01:19;95116.16;;;5.41;100.00
65800;BME280;52544;48.116;11.660;2022-11-20T03:03:44;95121.00;;;5.34;100.00
65800;BME280;52544;48.116;11.660;2022-11-20T03:06:10;95116.56;;;5.35;100.00
65800;BME280;52544;48.116;11.660;2022-11-20T03:08:36;95119.09;;;5.36;100.00
65800;BME280;52544;48.116;11.660;2022-11-20T03:11:06;95114.91;;;5.34;100.00
65800;BME280;52544;48.116;11.660;2022-11-20T03:13:32;95111.56;;;5.32;100.00
65800;BME280;52544;48.116;11.660;2022-11-20T03:15:57;95113.56;;;5.28;100.00
65800;BME280;52544;48.116;11.660;2022-11-20T03:18:22;95111.03;;;5.26;100.00
65800;BME280;52544;48.116;11.660;2022-11-20T03:20:48;95109.66;;;5.34;100.00
65800;BME280;52544;48.116;11.660;2022-11-20T03:23:13;95106.19;;;5.33;100.00
65800;BME280;52544;48.116;11.660;2022-11-20T03:25:39;95110.13;;;5.28;100.00
65800;BME280;52544;48.116;11.660;2022-11-20T03:28:04;95106.09;;;5.35;100.00
65800;BME280;52544;48.116;11.660;2022-11-20T03:30:29;95103.56;;;5.33;100.00
65800;BME280;52544;48.116;11.660;2022-11-20T03:32:55;95110.41;;;5.36;100.00
65800;BME280;52544;48.116;11.660;2022-11-20T03:35:20;95110.91;;;5.41;100.00
65800;BME280;52544;48.116;11.660;2022-11-20T03:37:46;95109.94;;;5.42;100.00
65800;BME280;52544;48.116;11.660;2022-11-20T03:40:11;95116.78;;;5.44;100.00
65800;BME280;52544;48.116;11.660;2022-11-20T03:42:37;95111.63;;;5.43;100.00
65800;BME280;52544;48.116;11.660;2022-11-20T03:45:16;95109.72;;;5.45;99.98
65800;BME280;52544;48.116;11.660;2022-11-20T03:47:42;95106.44;;;5.54;98.93
65800;BME280;52544;48.116;11.660;2022-11-20T03:50:09;95103.03;;;5.41;98.63
65800;BME280;52544;48.116;11.660;2022-11-20T03:52:35;95096.63;;;5.45;98.91
65800;BME280;52544;48.116;11.660;2022-11-20T03:55:00;95104.28;;;5.48;98.63
65800;BME280;52544;48.116;11.660;2022-11-20T03:57:26;95102.06;;;5.42;98.77
65800;BME280;52544;48.116;11.660;2022-11-20T03:59:51;95112.69;;;5.40;98.40
65800;BME280;52544;48.116;11.660;2022-11-20T04:02:17;95113.75;;;5.38;98.54
65800;BME280;52544;48.116;11.660;2022-11-20T04:04:42;95118.03;;;5.39;98.17
65800;BME280;52544;48.116;11.660;2022-11-20T04:07:08;95110.91;;;5.41;97.86
65800;BME280;52544;48.116;11.660;2022-11-20T04:09:33;95119.94;;;5.37;97.41
65800;BME280;52544;48.116;11.660;2022-11-20T04:11:59;95121.41;;;5.41;98.43
65800;BME280;52544;48.116;11.660;2022-11-20T04:14:24;95127.34;;;5.43;97.72
65800;BME280;52544;48.116;11.660;2022-11-20T04:16:50;95128.09;;;5.45;97.24
65800;BME280;52544;48.116;11.660;2022-11-20T04:19:16;95119.94;;;5.37;97.92
65800;BME280;52544;48.116;11.660;2022-11-20T04:21:42;95118.69;;;5.30;97.97
65800;BME280;52544;48.116;11.660;2022-11-20T04:24:08;95115.13;;;5.31;98.78
65800;BME280;52544;48.116;11.660;2022-11-20T04:26:35;95119.44;;;5.32;98.21
65800;BME280;52544;48.116;11.660;2022-11-20T04:29:01;95118.59;;;5.31;98.64
65800;BME280;52544;48.116;11.660;2022-11-20T04:31:32;95119.72;;;5.40;97.46
65800;BME280;52544;48.116;11.660;2022-11-20T04:34:02;95114.47;;;5.40;96.45
65800;BME280;52544;48.116;11.660;2022-11-20T04:36:29;95117.19;;;5.38;96.68
65800;BME280;52544;48.116;11.660;2022-11-20T04:38:59;95113.88;;;5.36;96.96
65800;BME280;52544;48.116;11.660;2022-11-20T04:41:28;95110.44;;;5.23;98.64
65800;BME280;52544;48.116;11.660;2022-11-20T04:43:56;95110.31;;;5.24;98.90
65800;BME280;52544;48.116;11.660;2022-11-20T04:46:25;95114.28;;;5.30;97.66
65800;BME280;52544;48.116;11.660;2022-11-20T04:48:51;95114.00;;;5.22;97.25
65800;BME280;52544;48.116;11.660;2022-11-20T04:51:16;95111.94;;;5.14;98.99
65800;BME280;52544;48.116;11.660;2022-11-20T04:53:42;95119.38;;;5.20;98.38
65800;BME280;52544;48.116;11.660;2022-11-20T04:56:09;95116.03;;;5.18;98.21
65800;BME280;52544;48.116;11.660;2022-11-20T04:58:35;95115.03;;;5.32;96.89
65800;BME280;52544;48.116;11.660;2022-11-20T05:01:23;95111.03;;;5.26;97.51
65800;BME280;52544;48.116;11.660;2022-11-20T05:03:49;95117.88;;;5.29;97.73
65800;BME280;52544;48.116;11.660;2022-11-20T05:06:17;95120.16;;;5.34;97.62
65800;BME280;52544;48.116;11.660;2022-11-20T05:08:43;95108.31;;;5.28;97.46
65800;BME280;52544;48.116;11.660;2022-11-20T05:11:14;95114.75;;;5.24;98.20
65800;BME280;52544;48.116;11.660;2022-11-20T05:13:41;95116.91;;;5.30;97.17
65800;BME280;52544;48.116;11.660;2022-11-20T05:16:15;95115.13;;;5.31;96.81
65800;BME280;52544;48.116;11.660;2022-11-20T05:18:42;95116.56;;;5.35;96.46
65800;BME280;52544;48.116;11.660;2022-11-20T05:21:09;95109.63;;;5.22;97.47
65800;BME280;52544;48.116;11.660;2022-11-20T05:23:35;95118.03;;;5.39;97.02
65800;BME280;52544;48.116;11.660;2022-11-20T05:26:01;95123.75;;;5.33;96.64
65800;BME280;52544;48.116;11.660;2022-11-20T05:28:28;95120.78;;;5.37;96.45
65800;BME280;52544;48.116;11.660;2022-11-20T05:30:54;95122.44;;;5.38;95.21
65800;BME280;52544;48.116;11.660;2022-11-20T05:33:19;95116.16;;;5.41;95.92
65800;BME280;52544;48.116;11.660;2022-11-20T05:35:45;95119.19;;;5.35;95.69
65800;BME280;52544;48.116;11.660;2022-11-20T05:38:10;95122.44;;;5.38;96.25
65800;BME280;52544;48.116;11.660;2022-11-20T05:40:36;95119.44;;;5.32;96.08
65800;BME280;52544;48.116;11.660;2022-11-20T05:43:02;95121.22;;;5.31;96.29
65800;BME280;52544;48.116;11.660;2022-11-20T05:45:27;95118.50;;;5.33;95.82
65800;BME280;52544;48.116;11.660;2022-11-20T05:47:53;95130.88;;;5.31;96.68
65800;BME280;52544;48.116;11.660;2022-11-20T05:50:19;95125.03;;;5.27;96.26
65800;BME280;52544;48.116;11.660;2022-11-20T05:52:44;95127.97;;;5.22;97.34
65800;BME280;52544;48.116;11.660;2022-11-20T05:55:09;95129.97;;;5.19;97.75
65800;BME280;52544;48.116;11.660;2022-11-20T05:57:35;95133.94;;;5.24;96.38
65800;BME280;52544;48.116;11.660;2022-11-20T06:00:01;95131.31;;;5.24;96.35
65800;BME280;52544;48.116;11.660;2022-11-20T06:02:26;95127.97;;;5.22;96.98
65800;BME280;52544;48.116;11.660;2022-11-20T06:04:52;95132.81;;;5.16;97.24
65800;BME280;52544;48.116;11.660;2022-11-20T06:07:17;95122.44;;;5.14;96.72
65800;BME280;52544;48.116;11.660;2022-11-20T06:09:42;95130.31;;;5.14;97.08
65800;BME280;52544;48.116;11.660;2022-11-20T06:12:08;95129.34;;;5.15;97.42
65800;BME280;52544;48.116;11.660;2022-11-20T06:14:33;95129.16;;;5.18;97.14
65800;BME280;52544;48.116;11.660;2022-11-20T06:16:59;95130.31;;;5.14;96.83
65800;BME280;52544;48.116;11.660;2022-11-20T06:19:24;95121.47;;;5.15;97.16
65800;BME280;52544;48.116;11.660;2022-11-20T06:21:50;95130.41;;;5.13;96.43
65800;BME280;52544;48.116;11.660;2022-11-20T06:24:16;95125.47;;;5.08;97.12
65800;BME280;52544;48.116;11.660;2022-11-20T06:26:42;95125.47;;;5.08;97.13
65800;BME280;52544;48.116;11.660;2022-11-20T06:29:07;95126.84;;;5.01;96.88
65800;BME280;52544;48.116;11.660;2022-11-20T06:31:33;95129.38;;;5.03;96.31
65800;BME280;52544;48.116;11.660;2022-11-20T06:34:00;95126.75;;;5.03;95.93
65800;BME280;52544;48.116;11.660;2022-11-20T06:36:26;95130.84;;;5.07;93.60
65800;BME280;52544;48.116;11.660;2022-11-20T06:38:52;95130.84;;;5.07;93.77
65800;BME280;52544;48.116;11.660;2022-11-20T06:41:20;95138.00;;;4.92;94.10
65800;BME280;52544;48.116;11.660;2022-11-20T06:43:46;95138.94;;;4.91;93.72
65800;BME280;52544;48.116;11.660;2022-11-20T06:46:12;95147.31;;;4.96;92.45
65800;BME280;52544;48.116;11.660;2022-11-20T06:48:39;95153.84;;;4.90;93.19
65800;BME280;52544;48.116;11.660;2022-11-20T06:51:06;95148.81;;;4.87;92.41
65800;BME280;52544;48.116;11.660;2022-11-20T06:53:32;95154.88;;;4.88;91.88
65800;BME280;52544;48.116;11.660;2022-11-20T06:55:57;95158.06;;;4.93;92.05
65800;BME280;52544;48.116;11.660;2022-11-20T06:58:23;95164.00;;;4.95;91.21
65800;BME280;52544;48.116;11.660;2022-11-20T07:00:51;95163.69;;;4.99;90.75
65800;BME280;52544;48.116;11.660;2022-11-20T07:03:16;95162.94;;;5.10;90.65
65800;BME280;52544;48.116;11.660;2022-11-20T07:05:41;95163.88;;;5.09;89.98
65800;BME280;52544;48.116;11.660;2022-11-20T07:08:07;95168.19;;;5.10;89.76
65800;BME280;52544;48.116;11.660;2022-11-20T07:10:33;95166.06;;;5.15;89.33
65800;BME280;52544;48.116;11.660;2022-11-20T07:12:59;95170.38;;;5.16;89.61
65800;BME280;52544;48.116;11.660;2022-11-20T07:15:25;95168.69;;;5.15;90.69
65800;BME280;52544;48.116;11.660;2022-11-20T07:17:51;95170.38;;;5.16;90.71
65800;BME280;52544;48.116;11.660;2022-11-20T07:20:16;95178.66;;;5.23;90.45
65800;BME280;52544;48.116;11.660;2022-11-20T07:22:42;95168.16;;;5.23;90.24
65800;BME280;52544;48.116;11.660;2022-11-20T07:25:08;95175.91;;;5.24;91.16
65800;BME280;52544;48.116;11.660;2022-11-20T07:27:34;95169.63;;;5.27;92.16
65800;BME280;52544;48.116;11.660;2022-11-20T07:30:00;95175.38;;;5.32;91.98
65800;BME280;52544;48.116;11.660;2022-11-20T07:32:25;95181.47;;;5.33;92.10
65800;BME280;52544;48.116;11.660;2022-11-20T07:34:50;95178.09;;;5.31;91.96
65800;BME280;52544;48.116;11.660;2022-11-20T07:37:16;95179.56;;;5.35;92.17
65800;BME280;52544;48.116;11.660;2022-11-20T07:39:42;95173.47;;;5.34;91.85
65800;BME280;52544;48.116;11.660;2022-11-20T07:42:07;95171.16;;;5.30;92.13
65800;BME280;52544;48.116;11.660;2022-11-20T07:44:33;95170.97;;;5.33;92.97
65800;BME280;52544;48.116;11.660;2022-11-20T07:46:59;95179.03;;;5.30;92.87
65800;BME280;52544;48.116;11.660;2022-11-20T07:49:24;95170.97;;;5.33;92.24
65800;BME280;52544;48.116;11.660;2022-11-20T07:51:50;95174.59;;;5.43;90.82
65800;BME280;52544;48.116;11.660;2022-11-20T07:54:16;95174.25;;;5.47;90.56
65800;BME280;52544;48.116;11.660;2022-11-20T07:56:42;95173.66;;;5.44;90.08
65800;BME280;52544;48.116;11.660;2022-11-20T07:59:07;95173.84;;;5.54;89.49
65800;BME280;52544;48.116;11.660;2022-11-20T08:01:32;95178.47;;;5.50;89.01
65800;BME280;52544;48.116;11.660;2022-11-20T08:03:58;95180.44;;;5.59;89.31
65800;BME280;52544;48.116;11.660;2022-11-20T08:06:23;95180.34;;;5.61;87.90
65800;BME280;52544;48.116;11.660;2022-11-20T08:08:50;95177.47;;;5.64;87.27
65800;BME280;52544;48.116;11.660;2022-11-20T08:11:15;95174.00;;;5.63;87.62
65800;BME280;52544;48.116;11.660;2022-11-20T08:14:00;95185.81;;;5.58;87.77
65800;BME280;52544;48.116;11.660;2022-11-20T08:16:38;95187.25;;;5.62;87.37
65800;BME280;52544;48.116;11.660;2022-11-20T08:19:04;95182.84;;;5.62;86.79
65800;BME280;52544;48.116;11.660;2022-11-20T08:21:30;95184.50;;;5.63;87.35
65800;BME280;52544;48.116;11.660;2022-11-20T08:23:57;95184.19;;;5.68;87.29
65800;BME280;52544;48.116;11.660;2022-11-20T08:26:22;95191.22;;;5.67;86.91
65800;BME280;52544;48.116;11.660;2022-11-20T08:28:48;95185.53;;;5.73;84.87
65800;BME280;52544;48.116;11.660;2022-11-20T08:31:14;95197.25;;;5.81;85.10
65800;BME280;52544;48.116;11.660;2022-11-20T08:33:39;95191.16;;;5.80;84.46
65800;BME280;52544;48.116;11.660;2022-11-20T08:36:05;95190.78;;;5.73;85.11
65800;BME280;52544;48.116;11.660;2022-11-20T08:38:31;95191.50;;;5.75;85.02
65800;BME280;52544;48.116;11.660;2022-11-20T08:41:00;95192.22;;;5.77;86.03
65800;BME280;52544;48.116;11.660;2022-11-20T08:43:45;95197.75;;;5.86;85.17
65800;BME280;52544;48.116;11.660;2022-11-20T08:46:10;95187.16;;;5.87;84.45
65800;BME280;52544;48.116;11.660;2022-11-20T08:48:36;95195.34;;;5.95;83.92
65800;BME280;52544;48.116;11.660;2022-11-20T08:51:01;95188.50;;;5.93;83.74
65800;BME280;52544;48.116;11.660;2022-11-20T08:53:27;95188.38;;;5.94;83.15
65800;BME280;52544;48.116;11.660;2022-11-20T08:55:53;95185.75;;;5.94;84.09
65800;BME280;52544;48.116;11.660;2022-11-20T08:58:18;95191.28;;;6.03;82.78
65800;BME280;52544;48.116;11.660;2022-11-20T09:00:43;95181.75;;;6.01;82.15
65800;BME280;52544;48.116;11.660;2022-11-20T09:03:09;95188.94;;;6.11;82.06
65800;BME280;52544;48.116;11.660;2022-11-20T09:05:34;95192.06;;;6.16;81.40
65800;BME280;52544;48.116;11.660;2022-11-20T09:08:00;95189.56;;;6.14;82.55
65800;BME280;52544;48.116;11.660;2022-11-20T09:10:28;95194.38;;;6.20;81.65
65800;BME280;52544;48.116;11.660;2022-11-20T09:12:54;95183.41;;;6.26;81.05
65800;BME280;52544;48.116;11.660;2022-11-20T09:15:20;95192.50;;;6.34;79.88
65800;BME280;52544;48.116;11.660;2022-11-20T09:17:52;95179.09;;;6.25;80.18
65800;BME280;52544;48.116;11.660;2022-11-20T09:20:18;95179.09;;;6.25;81.17
65800;BME280;52544;48.116;11.660;2022-11-20T09:22:44;95181.38;;;6.30;78.67
65800;BME280;52544;48.116;11.660;2022-11-20T09:25:09;95180.06;;;6.24;78.85
65800;BME280;52544;48.116;11.660;2022-11-20T09:27:35;95170.97;;;6.29;79.12
65800;BME280;52544;48.116;11.660;2022-11-20T09:30:01;95173.28;;;6.33;78.47
65800;BME280;52544;48.116;11.660;2022-11-20T09:32:26;95172.88;;;6.26;78.88
65800;BME280;52544;48.116;11.660;2022-11-20T09:34:52;95174.56;;;6.28;79.76
65800;BME280;52544;48.116;11.660;2022-11-20T09:37:17;95179.38;;;6.34;78.61
65800;BME280;52544;48.116;11.660;2022-11-20T09:39:42;95168.25;;;6.41;77.14
65800;BME280;52544;48.116;11.660;2022-11-20T09:42:32;95165.41;;;6.44;77.11
65800;BME280;52544;48.116;11.660;2022-11-20T09:45:04;95165.66;;;6.53;77.21
65800;BME280;52544;48.116;11.660;2022-11-20T09:56:01;95162.31;;;6.62;75.27
65800;BME280;52544;48.116;11.660;2022-11-20T09:58:45;95150.00;;;6.62;74.31
65800;BME280;52544;48.116;11.660;2022-11-20T10:01:16;95151.72;;;6.63;74.72
65800;BME280;52544;48.116;11.660;2022-11-20T10:04:02;95135.81;;;6.65;73.56
65800;BME280;52544;48.116;11.660;2022-11-20T10:09:22;95144.53;;;6.76;73.90
65800;BME280;52544;48.116;11.660;2022-11-20T10:15:00;95140.94;;;7.00;71.56
65800;BME280;52544;48.116;11.660;2022-11-20T10:20:28;95135.94;;;7.19;72.11
65800;BME280;52544;48.116;11.660;2022-11-20T10:23:23;95130.63;;;7.42;72.73
65800;BME280;52544;48.116;11.660;2022-11-20T10:26:03;95132.50;;;7.62;70.62
65800;BME280;52544;48.116;11.660;2022-11-20T10:31:37;95143.09;;;7.72;69.16
65800;BME280;52544;48.116;11.660;2022-11-20T10:34:07;95138.69;;;7.72;69.97
65800;BME280;52544;48.116;11.660;2022-11-20T10:36:48;95137.84;;;7.72;69.98
65800;BME280;52544;48.116;11.660;2022-11-20T10:39:21;95136.94;;;7.94;68.13
65800;BME280;52544;48.116;11.660;2022-11-20T10:41:51;95145.78;;;7.93;69.04
65800;BME280;52544;48.116;11.660;2022-11-20T10:44:21;95135.84;;;7.96;69.38
65800;BME280;52544;48.116;11.660;2022-11-20T10:47:14;95137.09;;;8.13;67.36
65800;BME280;52544;48.116;11.660;2022-11-20T10:49:41;95125.78;;;8.22;65.69
65800;BME280;52544;48.116;11.660;2022-11-20T10:52:16;95123.53;;;8.18;65.05
65800;BME280;52544;48.116;11.660;2022-11-20T10:55:06;95128.47;;;8.11;65.57
65800;BME280;52544;48.116;11.660;2022-11-20T11:00:23;95122.75;;;8.38;65.31
65800;BME280;52544;48.116;11.660;2022-11-20T11:02:51;95129.03;;;8.47;65.14
65800;BME280;52544;48.116;11.660;2022-11-20T11:05:25;95121.91;;;8.38;65.18
65800;BME280;52544;48.116;11.660;2022-11-20T11:07:56;95123.16;;;8.22;64.15
65800;BME280;52544;48.116;11.660;2022-11-20T11:13:23;95117.47;;;8.06;66.51
65800;BME280;52544;48.116;11.660;2022-11-20T11:15:49;95122.03;;;8.04;66.28
65800;BME280;52544;48.116;11.660;2022-11-20T11:20:50;95113.59;;;7.89;66.82
65800;BME280;52544;48.116;11.660;2022-11-20T11:26:00;95114.19;;;7.93;67.75
65800;BME280;52544;48.116;11.660;2022-11-20T11:28:26;95106.00;;;7.75;68.79
65800;BME280;52544;48.116;11.660;2022-11-20T11:30:53;95110.75;;;7.81;69.38
65800;BME280;52544;48.116;11.660;2022-11-20T11:33:25;95105.09;;;7.86;69.61
65800;BME280;52544;48.116;11.660;2022-11-20T11:36:04;95105.59;;;7.91;69.37
65800;BME280;52544;48.116;11.660;2022-11-20T11:38:42;95103.66;;;7.93;69.05
65800;BME280;52544;48.116;11.660;2022-11-20T11:41:23;95100.75;;;7.96;68.48
65800;BME280;52544;48.116;11.660;2022-11-20T11:43:56;95090.22;;;7.96;67.39
65800;BME280;52544;48.116;11.660;2022-11-20T11:46:49;95090.28;;;8.06;67.27
65800;BME280;52544;48.116;11.660;2022-11-20T11:49:18;95089.06;;;8.10;66.66
65800;BME280;52544;48.116;11.660;2022-11-20T11:55:03;95098.09;;;8.07;67.26
65800;BME280;52544;48.116;11.660;2022-11-20T12:05:24;95093.31;;;8.22;67.66
65800;BME280;52544;48.116;11.660;2022-11-20T12:08:21;95082.25;;;8.28;65.27
65800;BME280;52544;48.116;11.660;2022-11-20T12:10:56;95088.09;;;8.32;66.01
65800;BME280;52544;48.116;11.660;2022-11-20T12:16:04;95084.06;;;8.27;65.90
65800;BME280;52544;48.116;11.660;2022-11-20T12:18:30;95100.00;;;8.26;67.29
65800;BME280;52544;48.116;11.660;2022-11-20T12:21:11;95089.66;;;8.13;67.54
65800;BME280;52544;48.116;11.660;2022-11-20T12:34:49;95096.91;;;7.24;79.31
65800;BME280;52544;48.116;11.660;2022-11-20T12:37:28;95088.78;;;7.16;79.58
65800;BME280;52544;48.116;11.660;2022-11-20T12:39:58;95095.72;;;7.17;79.06
65800;BME280;52544;48.116;11.660;2022-11-20T12:45:28;95090.72;;;7.03;83.33
65800;BME280;52544;48.116;11.660;2022-11-20T12:50:59;95090.75;;;6.81;86.21
65800;BME280;52544;48.116;11.660;2022-11-20T12:59:16;95093.84;;;6.74;85.52
65800;BME280;52544;48.116;11.660;2022-11-20T13:01:50;95086.44;;;6.80;85.64
65800;BME280;52544;48.116;11.660;2022-11-20T13:06:49;95090.28;;;6.75;86.44
65800;BME280;52544;48.116;11.660;2022-11-20T13:09:18;95093.84;;;6.74;86.75
65800;BME280;52544;48.116;11.660;2022-11-20T13:14:45;95086.81;;;6.64;87.23
65800;BME280;52544;48.116;11.660;2022-11-20T13:17:30;95086.81;;;6.64;87.29
65800;BME280;52544;48.116;11.660;2022-11-20T13:20:00;95085.00;;;6.64;88.59
65800;BME280;52544;48.116;11.660;2022-11-20T13:25:33;95082.59;;;6.61;85.93
65800;BME280;52544;48.116;11.660;2022-11-20T13:30:52;95076.38;;;6.62;86.60
65800;BME280;52544;48.116;11.660;2022-11-20T13:33:30;95068.75;;;6.59;85.97
65800;BME280;52544;48.116;11.660;2022-11-20T13:35:58;95068.25;;;6.54;86.02
65800;BME280;52544;48.116;11.660;2022-11-20T13:38:25;95064.91;;;6.41;88.53
65800;BME280;52544;48.116;11.660;2022-11-20T13:41:01;95067.91;;;6.36;89.21
65800;BME280;52544;48.116;11.660;2022-11-20T13:43:49;95068.97;;;6.34;89.37
65800;BME280;52544;48.116;11.660;2022-11-20T13:46:15;95059.78;;;6.39;88.80
65800;BME280;52544;48.116;11.660;2022-11-20T13:48:42;95068.72;;;6.37;89.83
65800;BME280;52544;48.116;11.660;2022-11-20T13:53:57;95056.31;;;6.39;88.28
65800;BME280;52544;48.116;11.660;2022-11-20T13:59:56;95055.09;;;6.32;87.18
65800;BME280;52544;48.116;11.660;2022-11-20T14:02:25;95050.31;;;6.37;88.59
65800;BME280;52544;48.116;11.660;2022-11-20T14:04:55;95056.31;;;6.39;88.01
65800;BME280;52544;48.116;11.660;2022-11-20T14:07:25;95058.97;;;6.50;86.81
65800;BME280;52544;48.116;11.660;2022-11-20T14:09:57;95055.22;;;6.41;87.21
65800;BME280;52544;48.116;11.660;2022-11-20T14:12:30;95062.53;;;6.49;87.23
65800;BME280;52544;48.116;11.660;2022-11-20T14:14:56;95062.91;;;6.56;86.86
65800;BME280;52544;48.116;11.660;2022-11-20T14:17:32;95054.78;;;6.47;86.32
65800;BME280;52544;48.116;11.660;2022-11-20T14:20:04;95056.22;;;6.51;85.95
65800;BME280;52544;48.116;11.660;2022-11-20T14:22:30;95053.72;;;6.50;86.09
65800;BME280;52544;48.116;11.660;2022-11-20T14:27:33;95062.31;;;6.52;86.13
65800;BME280;52544;48.116;11.660;2022-11-20T14:30:00;95059.91;;;6.49;86.64
65800;BME280;52544;48.116;11.660;2022-11-20T14:32:28;95059.66;;;6.52;86.33
65800;BME280;52544;48.116;11.660;2022-11-20T14:34:58;95057.66;;;6.56;85.33
65800;BME280;52544;48.116;11.660;2022-11-20T14:37:28;95039.59;;;6.51;85.27